createdAt,value
2022-10-22T00:00:13.485Z,43.51
2022-10-22T00:01:15.986Z,43.18
2022-10-22T00:02:13.441Z,42.38
2022-10-22T00:03:13.436Z,41.09
2022-10-22T00:04:13.426Z,42.38
2022-10-22T00:05:13.482Z,43.51
2022-10-22T00:06:13.394Z,45.60
2022-10-22T00:07:14.378Z,45.76
2022-10-22T00:08:14.376Z,41.89
2022-10-22T00:09:13.470Z,41.89
2022-10-22T00:10:13.364Z,41.73
2022-10-22T00:11:13.349Z,43.83
2022-10-22T00:12:13.355Z,43.67
2022-10-22T00:13:13.349Z,40.28
2022-10-22T00:14:13.323Z,40.93
2022-10-22T00:15:13.326Z,44.47
2022-10-22T00:16:13.323Z,40.77
2022-10-22T00:17:13.296Z,43.18
2022-10-22T00:18:13.287Z,45.92
2022-10-22T00:19:13.273Z,41.57
2022-10-22T00:20:13.261Z,41.57
2022-10-22T00:21:13.271Z,41.73
2022-10-22T00:22:13.241Z,46.57
2022-10-22T00:23:13.249Z,51.56
2022-10-22T00:24:13.217Z,42.86
2022-10-22T00:25:13.219Z,43.51
2022-10-22T00:26:13.210Z,41.73
2022-10-22T00:27:13.191Z,51.08
2022-10-22T00:28:13.205Z,43.67
2022-10-22T00:29:13.169Z,40.61
2022-10-22T00:30:13.158Z,41.25
2022-10-22T00:31:13.160Z,50.11
2022-10-22T00:32:13.138Z,51.56
2022-10-22T00:33:13.136Z,40.61
2022-10-22T00:34:13.135Z,39.32
2022-10-22T00:35:13.122Z,40.12
2022-10-22T00:36:13.168Z,43.02
2022-10-22T00:37:13.086Z,42.38
2022-10-22T00:38:13.093Z,41.09
2022-10-22T00:39:13.076Z,42.06
2022-10-22T00:40:13.064Z,44.31
2022-10-22T00:41:13.078Z,45.60
2022-10-22T00:42:13.042Z,49.31
2022-10-22T00:43:13.038Z,46.73
2022-10-22T00:44:13.025Z,48.34
2022-10-22T00:45:13.014Z,47.86
2022-10-22T00:46:12.996Z,49.79
2022-10-22T00:47:13.018Z,52.21
2022-10-22T00:48:12.979Z,47.70
2022-10-22T00:49:12.985Z,48.02
2022-10-22T00:50:12.999Z,46.08
2022-10-22T00:51:12.969Z,46.57
2022-10-22T00:52:12.957Z,46.08
2022-10-22T00:53:12.936Z,46.73
2022-10-22T00:54:12.930Z,46.57
2022-10-22T00:55:12.929Z,47.70
2022-10-22T00:56:12.916Z,48.34
2022-10-22T00:57:12.895Z,51.72
2022-10-22T00:58:12.883Z,40.28
2022-10-22T00:59:12.878Z,39.64
2022-10-22T01:00:12.865Z,40.28
2022-10-22T01:01:12.905Z,40.77
2022-10-22T01:02:12.840Z,39.80
2022-10-22T01:03:12.829Z,39.96
2022-10-22T01:04:12.839Z,41.57
2022-10-22T01:05:12.854Z,40.77
2022-10-22T01:06:12.831Z,40.28
2022-10-22T01:07:12.797Z,40.77
2022-10-22T01:08:12.788Z,40.93
2022-10-22T01:09:12.774Z,40.93
2022-10-22T01:10:12.770Z,40.12
2022-10-22T01:11:12.755Z,40.77
2022-10-22T01:12:12.760Z,40.28
2022-10-22T01:13:12.758Z,41.41
2022-10-22T01:14:12.748Z,41.09
2022-10-22T01:15:12.716Z,44.63
2022-10-22T01:16:12.724Z,43.51
2022-10-22T01:17:12.732Z,45.60
2022-10-22T01:18:12.685Z,46.08
2022-10-22T01:19:12.701Z,43.18
2022-10-22T01:20:12.668Z,42.54
2022-10-22T01:21:12.666Z,43.18
2022-10-22T01:22:12.653Z,40.28
2022-10-22T01:23:12.640Z,42.06
2022-10-22T01:24:12.637Z,42.70
2022-10-22T01:25:12.653Z,46.08
2022-10-22T01:26:12.649Z,41.41
2022-10-22T01:27:12.612Z,43.51
2022-10-22T01:28:12.605Z,43.51
2022-10-22T01:29:12.592Z,41.41
2022-10-22T01:30:12.592Z,40.61
2022-10-22T01:31:12.576Z,40.77
2022-10-22T01:32:12.556Z,41.25
2022-10-22T01:33:12.547Z,40.93
2022-10-22T01:34:12.528Z,41.41
2022-10-22T01:35:12.571Z,40.28
2022-10-22T01:36:12.514Z,41.73
2022-10-22T01:37:12.504Z,42.22
2022-10-22T01:38:12.501Z,40.28
2022-10-22T01:39:12.473Z,39.96
2022-10-22T01:40:12.511Z,40.28
2022-10-22T01:41:12.473Z,40.93
2022-10-22T01:42:12.443Z,42.06
2022-10-22T01:43:12.445Z,43.83
2022-10-22T01:44:12.432Z,41.41
2022-10-22T01:45:12.429Z,44.15
2022-10-22T01:46:12.416Z,42.38
2022-10-22T01:47:12.406Z,40.93
2022-10-22T01:48:12.401Z,41.57
2022-10-22T01:49:12.381Z,41.09
2022-10-22T01:50:12.394Z,42.22
2022-10-22T01:51:12.386Z,42.06
2022-10-22T01:52:12.348Z,48.34
2022-10-22T01:53:12.350Z,44.79
2022-10-22T01:54:12.330Z,47.21
2022-10-22T01:55:12.312Z,49.95
2022-10-22T01:56:12.327Z,47.37
2022-10-22T01:57:12.300Z,41.89
2022-10-22T01:58:12.301Z,41.25
2022-10-22T01:59:12.286Z,41.73
2022-10-22T02:00:12.272Z,45.44
2022-10-22T02:01:12.332Z,41.09
2022-10-22T02:02:12.255Z,43.51
2022-10-22T02:03:13.244Z,55.43
2022-10-22T02:04:12.236Z,51.72
2022-10-22T02:05:12.246Z,47.37
2022-10-22T02:06:12.209Z,46.73
2022-10-22T02:07:12.197Z,47.05
2022-10-22T02:08:12.185Z,47.21
2022-10-22T02:09:12.223Z,45.44
2022-10-22T02:10:12.190Z,44.96
2022-10-22T02:11:12.153Z,46.08
2022-10-22T02:12:12.157Z,46.57
2022-10-22T02:13:12.158Z,45.44
2022-10-22T02:14:12.128Z,46.25
2022-10-22T02:15:12.118Z,45.60
2022-10-22T02:16:12.123Z,48.82
2022-10-22T02:17:12.104Z,49.31
2022-10-22T02:18:12.101Z,47.53
2022-10-22T02:19:12.079Z,45.92
2022-10-22T02:20:12.076Z,47.53
2022-10-22T02:21:12.083Z,51.40
2022-10-22T02:22:12.047Z,50.92
2022-10-22T02:23:12.039Z,41.57
2022-10-22T02:24:12.027Z,46.08
2022-10-22T02:25:12.019Z,40.12
2022-10-22T02:26:12.046Z,44.79
2022-10-22T02:27:12.010Z,40.44
2022-10-22T02:28:11.998Z,40.77
2022-10-22T02:29:11.975Z,40.61
2022-10-22T02:30:12.030Z,42.54
2022-10-22T02:31:11.983Z,49.31
2022-10-22T02:32:11.960Z,40.28
2022-10-22T02:33:11.957Z,40.28
2022-10-22T02:34:11.955Z,42.86
2022-10-22T02:35:11.923Z,39.48
2022-10-22T02:36:11.939Z,40.28
2022-10-22T02:37:11.908Z,43.83
2022-10-22T02:38:12.027Z,50.92
2022-10-22T02:39:11.906Z,42.06
2022-10-22T02:40:11.862Z,40.61
2022-10-22T02:41:11.851Z,45.92
2022-10-22T02:42:11.870Z,47.70
2022-10-22T02:43:11.856Z,45.12
2022-10-22T02:44:11.832Z,39.48
2022-10-22T02:45:11.888Z,39.48
2022-10-22T02:46:11.822Z,39.64
2022-10-22T02:47:11.805Z,38.99
2022-10-22T02:48:11.872Z,39.96
2022-10-22T02:49:11.791Z,39.96
2022-10-22T02:50:11.797Z,40.28
2022-10-22T02:51:43.665Z,43.67
2022-10-22T02:52:11.771Z,42.86
2022-10-22T02:53:11.754Z,39.96
2022-10-22T02:54:11.738Z,40.77
2022-10-22T02:55:11.718Z,45.44
2022-10-22T02:56:11.716Z,40.61
2022-10-22T02:57:11.761Z,40.44
2022-10-22T02:58:11.717Z,48.50
2022-10-22T02:59:11.690Z,43.67
2022-10-22T03:00:11.695Z,43.99
2022-10-22T03:01:15.215Z,41.25
2022-10-22T03:02:11.650Z,42.70
2022-10-22T03:03:11.643Z,46.41
2022-10-22T03:04:11.660Z,41.57
2022-10-22T03:05:11.620Z,45.76
2022-10-22T03:06:11.682Z,53.33
2022-10-22T03:07:11.605Z,44.63
2022-10-22T03:08:11.589Z,42.86
2022-10-22T03:09:12.622Z,40.93
2022-10-22T03:10:11.568Z,44.31
2022-10-22T03:11:11.563Z,48.66
2022-10-22T03:12:11.554Z,50.11
2022-10-22T03:13:11.548Z,40.93
2022-10-22T03:14:11.547Z,41.25
2022-10-22T03:15:11.540Z,43.02
2022-10-22T03:16:11.513Z,45.92
2022-10-22T03:17:11.504Z,40.12
2022-10-22T03:18:11.504Z,40.61
2022-10-22T03:19:11.546Z,40.61
2022-10-22T03:20:11.485Z,41.57
2022-10-22T03:21:11.491Z,45.44
2022-10-22T03:22:11.460Z,39.80
2022-10-22T03:23:11.451Z,40.28
2022-10-22T03:24:11.463Z,45.12
2022-10-22T03:25:11.437Z,43.18
2022-10-22T03:26:11.433Z,43.99
2022-10-22T03:27:11.416Z,43.67
2022-10-22T03:28:11.405Z,45.60
2022-10-22T03:29:11.394Z,48.50
2022-10-22T03:30:11.378Z,42.38
2022-10-22T03:31:11.366Z,41.89
2022-10-22T03:32:11.353Z,43.83
2022-10-22T03:33:11.369Z,43.51
2022-10-22T03:34:11.329Z,42.38
2022-10-22T03:35:11.338Z,42.38
2022-10-22T03:36:11.316Z,43.83
2022-10-22T03:37:11.324Z,42.38
2022-10-22T03:38:11.275Z,44.47
2022-10-22T03:39:11.281Z,50.43
2022-10-22T03:40:11.282Z,50.27
2022-10-22T03:41:11.242Z,46.25
2022-10-22T03:42:12.263Z,45.44
2022-10-22T03:43:11.231Z,47.05
2022-10-22T03:44:11.229Z,44.31
2022-10-22T03:45:11.224Z,45.44
2022-10-22T03:46:12.206Z,53.82
2022-10-22T03:47:11.216Z,43.02
2022-10-22T03:48:11.221Z,43.34
2022-10-22T03:49:11.173Z,41.89
2022-10-22T03:50:11.164Z,46.08
2022-10-22T03:51:11.154Z,46.08
2022-10-22T03:52:11.153Z,45.60
2022-10-22T03:53:11.130Z,49.15
2022-10-22T03:54:11.143Z,53.33
2022-10-22T03:55:11.132Z,58.01
2022-10-22T03:56:11.111Z,57.20
2022-10-22T03:57:11.120Z,52.37
2022-10-22T03:58:11.114Z,49.15
2022-10-22T03:59:11.071Z,49.63
2022-10-22T04:00:11.058Z,48.50
2022-10-22T04:01:11.120Z,46.73
2022-10-22T04:02:11.045Z,46.57
2022-10-22T04:03:11.051Z,47.86
2022-10-22T04:04:11.016Z,46.73
2022-10-22T04:05:11.086Z,45.92
2022-10-22T04:06:11.011Z,49.47
2022-10-22T04:07:10.999Z,47.86
2022-10-22T04:08:10.997Z,44.63
2022-10-22T04:09:11.017Z,43.34
2022-10-22T04:10:10.967Z,42.22
2022-10-22T04:11:10.944Z,47.37
2022-10-22T04:12:10.953Z,48.18
2022-10-22T04:13:10.941Z,43.34
2022-10-22T04:14:10.928Z,47.70
2022-10-22T04:15:10.914Z,43.67
2022-10-22T04:16:10.923Z,44.47
2022-10-22T04:17:10.899Z,50.76
2022-10-22T04:18:10.890Z,42.54
2022-10-22T04:19:10.870Z,49.63
2022-10-22T04:20:10.861Z,46.89
2022-10-22T04:21:10.859Z,47.53
2022-10-22T04:22:10.868Z,43.51
2022-10-22T04:23:10.829Z,46.08
2022-10-22T04:24:10.820Z,42.70
2022-10-22T04:25:10.818Z,46.08
2022-10-22T04:26:10.807Z,45.60
2022-10-22T04:27:10.816Z,46.89
2022-10-22T04:28:10.783Z,47.37
2022-10-22T04:29:13.575Z,47.70
2022-10-22T04:30:11.762Z,45.92
2022-10-22T04:31:10.759Z,48.34
2022-10-22T04:32:10.745Z,42.22
2022-10-22T04:33:10.746Z,43.83
2022-10-22T04:34:10.733Z,49.31
2022-10-22T04:35:10.713Z,48.50
2022-10-22T04:36:10.702Z,49.47
2022-10-22T04:37:10.718Z,47.21
2022-10-22T04:38:10.680Z,48.50
2022-10-22T04:39:10.671Z,48.18
2022-10-22T04:40:10.666Z,48.34
2022-10-22T04:41:10.670Z,47.70
2022-10-22T04:42:10.670Z,44.63
2022-10-22T04:43:10.635Z,41.73
2022-10-22T04:44:13.635Z,43.51
2022-10-22T04:45:11.623Z,44.31
2022-10-22T04:46:10.609Z,44.63
2022-10-22T04:47:10.602Z,44.79
2022-10-22T04:48:10.600Z,41.89
2022-10-22T04:49:10.577Z,43.99
2022-10-22T04:50:10.580Z,49.47
2022-10-22T04:51:10.614Z,41.73
2022-10-22T04:52:10.542Z,45.76
2022-10-22T04:53:10.527Z,47.53
2022-10-22T04:54:10.514Z,45.28
2022-10-22T04:55:10.511Z,44.96
2022-10-22T04:56:10.520Z,46.08
2022-10-22T04:57:10.507Z,42.86
2022-10-22T04:58:10.479Z,42.70
2022-10-22T04:59:10.476Z,44.96
2022-10-22T05:00:10.467Z,44.31
2022-10-22T05:01:10.562Z,46.25
2022-10-22T05:02:10.462Z,45.28
2022-10-22T05:03:10.431Z,47.05
2022-10-22T05:04:10.434Z,50.27
2022-10-22T05:05:10.410Z,43.83
2022-10-22T05:06:10.435Z,47.70
2022-10-22T05:07:10.406Z,49.47
2022-10-22T05:08:10.410Z,49.47
2022-10-22T05:09:10.493Z,45.44
2022-10-22T05:10:10.378Z,45.44
2022-10-22T05:11:10.366Z,46.57
2022-10-22T05:12:10.383Z,45.12
2022-10-22T05:13:10.349Z,44.15
2022-10-22T05:14:10.322Z,48.98
2022-10-22T05:15:10.308Z,46.57
2022-10-22T05:16:10.309Z,46.57
2022-10-22T05:17:10.311Z,48.34
2022-10-22T05:18:10.278Z,47.21
2022-10-22T05:19:10.265Z,47.21
2022-10-22T05:20:10.283Z,45.76
2022-10-22T05:21:10.248Z,49.47
2022-10-22T05:22:11.224Z,57.52
2022-10-22T05:23:11.251Z,50.11
2022-10-22T05:24:10.220Z,50.76
2022-10-22T05:25:10.211Z,48.34
2022-10-22T05:26:10.197Z,53.66
2022-10-22T05:27:10.225Z,45.12
2022-10-22T05:28:10.197Z,43.99
2022-10-22T05:29:10.165Z,44.79
2022-10-22T05:30:10.163Z,47.37
2022-10-22T05:31:10.159Z,46.73
2022-10-22T05:32:10.133Z,49.95
2022-10-22T05:33:10.144Z,48.34
2022-10-22T05:34:10.112Z,46.25
2022-10-22T05:35:10.109Z,44.96
2022-10-22T05:36:10.112Z,45.76
2022-10-22T05:37:10.089Z,49.15
2022-10-22T05:38:10.073Z,48.50
2022-10-22T05:39:10.075Z,51.72
2022-10-22T05:40:19.505Z,50.27
2022-10-22T05:41:12.079Z,47.05
2022-10-22T05:42:10.032Z,49.79
2022-10-22T05:43:10.033Z,45.76
2022-10-22T05:44:10.012Z,51.72
2022-10-22T05:45:10.016Z,50.76
2022-10-22T05:46:10.076Z,52.53
2022-10-22T05:47:09.992Z,48.50
2022-10-22T05:48:09.962Z,47.70
2022-10-22T05:49:09.957Z,52.21
2022-10-22T05:50:09.966Z,43.83
2022-10-22T05:51:09.969Z,43.83
2022-10-22T05:52:09.929Z,46.57
2022-10-22T05:53:09.917Z,44.31
2022-10-22T05:54:09.940Z,48.98
2022-10-22T05:55:09.898Z,44.96
2022-10-22T05:56:09.892Z,46.73
2022-10-22T05:57:09.904Z,46.89
2022-10-22T05:58:09.863Z,46.41
2022-10-22T05:59:09.855Z,48.02
2022-10-22T06:00:12.832Z,50.27
2022-10-22T06:01:09.850Z,46.08
2022-10-22T06:02:09.911Z,48.34
2022-10-22T06:03:09.819Z,46.41
2022-10-22T06:04:09.806Z,46.89
2022-10-22T06:05:09.805Z,50.27
2022-10-22T06:06:09.789Z,46.89
2022-10-22T06:07:09.797Z,47.86
2022-10-22T06:08:09.779Z,47.05
2022-10-22T06:09:09.794Z,45.44
2022-10-22T06:10:09.738Z,49.95
2022-10-22T06:11:09.771Z,50.76
2022-10-22T06:12:09.731Z,48.98
2022-10-22T06:13:09.726Z,44.47
2022-10-22T06:14:09.718Z,46.57
2022-10-22T06:15:09.759Z,47.37
2022-10-22T06:16:09.691Z,51.72
2022-10-22T06:17:09.674Z,51.88
2022-10-22T06:18:09.686Z,48.66
2022-10-22T06:19:09.681Z,49.15
2022-10-22T06:20:09.655Z,45.44
2022-10-22T06:21:09.662Z,47.53
2022-10-22T06:22:09.654Z,47.86
2022-10-22T06:23:09.624Z,47.70
2022-10-22T06:24:09.611Z,48.98
2022-10-22T06:25:09.598Z,49.79
2022-10-22T06:26:09.607Z,50.43
2022-10-22T06:27:09.580Z,48.34
2022-10-22T06:28:09.572Z,47.53
2022-10-22T06:29:09.571Z,48.82
2022-10-22T06:30:09.557Z,48.34
2022-10-22T06:31:09.578Z,50.92
2022-10-22T06:32:09.542Z,48.50
2022-10-22T06:33:09.519Z,47.37
2022-10-22T06:34:09.509Z,48.34
2022-10-22T06:35:09.504Z,48.66
2022-10-22T06:36:09.526Z,52.37
2022-10-22T06:37:09.495Z,45.44
2022-10-22T06:38:09.474Z,48.02
2022-10-22T06:39:09.499Z,49.79
2022-10-22T06:40:09.468Z,50.27
2022-10-22T06:41:09.446Z,48.50
2022-10-22T06:42:09.439Z,46.08
2022-10-22T06:43:09.426Z,49.63
2022-10-22T06:44:09.439Z,51.72
2022-10-22T06:45:09.429Z,48.66
2022-10-22T06:46:09.393Z,48.98
2022-10-22T06:47:09.386Z,52.85
2022-10-22T06:48:09.381Z,47.05
2022-10-22T06:49:09.390Z,52.37
2022-10-22T06:50:09.389Z,50.60
2022-10-22T06:51:09.358Z,48.02
2022-10-22T06:52:09.339Z,49.95
2022-10-22T06:53:09.360Z,50.27
2022-10-22T06:54:09.334Z,50.92
2022-10-22T06:55:09.302Z,52.05
2022-10-22T06:56:09.307Z,50.43
2022-10-22T06:57:09.314Z,51.40
2022-10-22T06:58:09.277Z,51.08
2022-10-22T06:59:09.272Z,48.98
2022-10-22T07:00:09.256Z,51.88
2022-10-22T07:01:09.353Z,52.53
2022-10-22T07:02:09.236Z,50.11
2022-10-22T07:03:09.233Z,50.11
2022-10-22T07:04:09.229Z,50.92
2022-10-22T07:05:09.219Z,50.11
2022-10-22T07:06:09.221Z,48.50
2022-10-22T07:07:09.186Z,45.12
2022-10-22T07:08:09.199Z,50.11
2022-10-22T07:09:09.280Z,52.21
2022-10-22T07:10:09.219Z,48.34
2022-10-22T07:11:09.142Z,48.34
2022-10-22T07:12:09.132Z,48.50
2022-10-22T07:13:09.159Z,51.40
2022-10-22T07:14:09.120Z,50.92
2022-10-22T07:15:09.104Z,54.95
2022-10-22T07:16:09.114Z,53.50
2022-10-22T07:17:09.111Z,52.69
2022-10-22T07:18:09.073Z,54.62
2022-10-22T07:19:09.064Z,48.66
2022-10-22T07:20:09.056Z,44.96
2022-10-22T07:21:09.042Z,45.76
2022-10-22T07:22:09.069Z,48.34
2022-10-22T07:23:09.023Z,51.72
2022-10-22T07:24:09.062Z,52.53
2022-10-22T07:25:09.009Z,50.92
2022-10-22T07:26:09.015Z,50.43
2022-10-22T07:27:10.974Z,49.63
2022-10-22T07:28:08.994Z,51.24
2022-10-22T07:29:08.966Z,46.73
2022-10-22T07:30:08.954Z,50.92
2022-10-22T07:31:08.954Z,50.60
2022-10-22T07:32:08.951Z,49.63
2022-10-22T07:33:08.936Z,48.50
2022-10-22T07:34:08.974Z,52.37
2022-10-22T07:35:08.910Z,52.05
2022-10-22T07:36:08.897Z,52.53
2022-10-22T07:37:08.904Z,45.92
2022-10-22T07:38:08.881Z,48.98
2022-10-22T07:39:08.861Z,50.27
2022-10-22T07:40:08.868Z,49.15
2022-10-22T07:41:08.874Z,47.86
2022-10-22T07:42:08.839Z,49.31
2022-10-22T07:43:08.836Z,45.60
2022-10-22T07:44:08.823Z,53.17
2022-10-22T07:45:08.827Z,49.95
2022-10-22T07:46:08.836Z,47.21
2022-10-22T07:47:08.800Z,49.47
2022-10-22T07:48:08.780Z,51.40
2022-10-22T07:49:08.766Z,48.02
2022-10-22T07:50:08.777Z,51.24
2022-10-22T07:51:08.790Z,51.08
2022-10-22T07:52:08.763Z,50.43
2022-10-22T07:53:08.741Z,52.53
2022-10-22T07:54:08.760Z,52.53
2022-10-22T07:55:08.729Z,53.82
2022-10-22T07:56:08.701Z,54.14
2022-10-22T07:57:08.717Z,48.82
2022-10-22T07:58:08.692Z,52.37
2022-10-22T07:59:08.664Z,53.82
2022-10-22T08:00:08.656Z,53.50
2022-10-22T08:01:08.716Z,52.37
2022-10-22T08:02:08.670Z,49.79
2022-10-22T08:03:08.636Z,52.21
2022-10-22T08:04:08.638Z,52.05
2022-10-22T08:05:08.613Z,52.21
2022-10-22T08:06:08.601Z,50.92
2022-10-22T08:07:08.583Z,50.11
2022-10-22T08:08:08.577Z,50.76
2022-10-22T08:09:08.641Z,50.92
2022-10-22T08:10:08.577Z,49.95
2022-10-22T08:11:08.641Z,50.92
2022-10-22T08:12:08.542Z,49.79
2022-10-22T08:13:08.558Z,53.98
2022-10-22T08:14:08.542Z,53.82
2022-10-22T08:15:08.525Z,51.72
2022-10-22T08:16:08.529Z,54.30
2022-10-22T08:17:08.488Z,50.60
2022-10-22T08:18:08.487Z,50.60
2022-10-22T08:19:08.506Z,52.53
2022-10-22T08:20:08.461Z,53.17
2022-10-22T08:21:08.545Z,51.88
2022-10-22T08:22:08.462Z,51.40
2022-10-22T08:23:08.448Z,52.53
2022-10-22T08:24:08.443Z,53.82
2022-10-22T08:25:08.446Z,52.05
2022-10-22T08:26:08.417Z,50.43
2022-10-22T08:27:08.406Z,50.92
2022-10-22T08:28:08.383Z,50.92
2022-10-22T08:29:08.391Z,51.88
2022-10-22T08:30:08.406Z,52.53
2022-10-22T08:31:08.443Z,51.40
2022-10-22T08:32:08.362Z,52.85
2022-10-22T08:33:08.334Z,52.37
2022-10-22T08:34:08.349Z,51.88
2022-10-22T08:35:08.353Z,53.33
2022-10-22T08:36:08.315Z,51.72
2022-10-22T08:37:08.290Z,52.37
2022-10-22T08:38:08.288Z,49.31
2022-10-22T08:39:08.266Z,46.57
2022-10-22T08:40:08.277Z,53.17
2022-10-22T08:41:08.265Z,49.63
2022-10-22T08:42:08.236Z,52.21
2022-10-22T08:43:08.233Z,52.53
2022-10-22T08:44:08.234Z,53.50
2022-10-22T08:45:08.237Z,56.56
2022-10-22T08:46:08.208Z,53.17
2022-10-22T08:47:08.193Z,50.60
2022-10-22T08:48:08.178Z,51.24
2022-10-22T08:50:08.195Z,51.88
2022-10-22T08:51:40.055Z,50.11
2022-10-22T08:52:08.144Z,52.53
2022-10-22T08:53:08.129Z,47.53
2022-10-22T08:54:08.131Z,53.17
2022-10-22T08:55:08.108Z,52.85
2022-10-22T08:56:08.127Z,51.56
2022-10-22T08:57:08.089Z,49.79
2022-10-22T08:58:08.096Z,51.24
2022-10-22T08:59:08.069Z,52.53
2022-10-22T09:00:08.061Z,54.79
2022-10-22T09:01:08.047Z,53.01
2022-10-22T09:02:08.040Z,51.72
2022-10-22T09:03:08.064Z,52.69
2022-10-22T09:04:08.017Z,52.21
2022-10-22T09:05:11.510Z,50.76
2022-10-22T09:06:09.007Z,53.50
2022-10-22T09:07:08.008Z,55.91
2022-10-22T09:08:07.991Z,53.98
2022-10-22T09:09:08.038Z,53.82
2022-10-22T09:10:08.962Z,51.72
2022-10-22T09:11:07.951Z,50.92
2022-10-22T09:12:07.952Z,53.50
2022-10-22T09:13:07.936Z,53.82
2022-10-22T09:14:07.966Z,53.33
2022-10-22T09:15:07.916Z,53.17
2022-10-22T09:16:07.900Z,53.98
2022-10-22T09:17:07.893Z,52.69
2022-10-22T09:18:07.888Z,50.27
2022-10-22T09:19:07.900Z,51.40
2022-10-22T09:20:07.867Z,52.85
2022-10-22T09:21:07.852Z,51.88
2022-10-22T09:22:07.830Z,50.43
2022-10-22T09:23:07.836Z,49.79
2022-10-22T09:24:07.848Z,53.33
2022-10-22T09:25:07.834Z,54.30
2022-10-22T09:26:07.799Z,51.88
2022-10-22T09:27:07.792Z,51.08
2022-10-22T09:28:07.789Z,51.40
2022-10-22T09:29:07.776Z,49.31
2022-10-22T09:30:07.807Z,56.56
2022-10-22T09:31:07.784Z,51.72
2022-10-22T09:32:07.749Z,51.72
2022-10-22T09:33:07.745Z,54.62
2022-10-22T09:34:07.737Z,53.01
2022-10-22T09:35:07.718Z,53.17
2022-10-22T09:36:07.762Z,53.82
2022-10-22T09:37:07.684Z,53.82
2022-10-22T09:38:07.674Z,52.53
2022-10-22T09:39:07.726Z,52.85
2022-10-22T09:40:07.673Z,53.50
2022-10-22T09:41:07.645Z,51.88
2022-10-22T09:42:07.659Z,52.85
2022-10-22T09:43:07.628Z,50.92
2022-10-22T09:44:07.617Z,50.92
2022-10-22T09:45:07.617Z,52.37
2022-10-22T09:46:07.607Z,52.53
2022-10-22T09:47:07.625Z,52.69
2022-10-22T09:48:07.577Z,52.05
2022-10-22T09:49:07.577Z,51.88
2022-10-22T09:50:07.558Z,50.60
2022-10-22T09:51:07.547Z,53.17
2022-10-22T09:52:07.541Z,52.85
2022-10-22T09:53:07.563Z,52.05
2022-10-22T09:54:07.547Z,51.72
2022-10-22T09:55:07.513Z,52.21
2022-10-22T09:56:07.493Z,53.66
2022-10-22T09:57:07.492Z,52.69
2022-10-22T09:58:07.487Z,52.05
2022-10-22T09:59:07.492Z,52.21
2022-10-22T10:00:07.460Z,51.24
2022-10-22T10:01:07.457Z,48.82
2022-10-22T10:02:19.777Z,49.79
2022-10-22T10:03:09.471Z,54.46
2022-10-22T10:04:09.832Z,55.43
2022-10-22T10:05:08.418Z,50.76
2022-10-22T10:06:07.404Z,49.95
2022-10-22T10:07:07.390Z,49.15
2022-10-22T10:08:07.390Z,50.43
2022-10-22T10:09:07.457Z,53.50
2022-10-22T10:10:07.360Z,52.53
2022-10-22T10:11:07.370Z,50.76
2022-10-22T10:12:07.354Z,51.88
2022-10-22T10:13:07.334Z,52.69
2022-10-22T10:14:07.318Z,52.69
2022-10-22T10:15:07.307Z,52.37
2022-10-22T10:16:07.325Z,52.53
2022-10-22T10:17:07.290Z,49.31
2022-10-22T10:18:07.281Z,52.05
2022-10-22T10:19:07.282Z,51.40
2022-10-22T10:20:07.258Z,52.85
2022-10-22T10:21:07.306Z,51.72
2022-10-22T10:22:07.230Z,51.24
2022-10-22T10:23:07.236Z,49.15
2022-10-22T10:24:07.223Z,49.31
2022-10-22T10:25:07.213Z,52.05
2022-10-22T10:26:07.231Z,47.21
2022-10-22T10:27:07.200Z,51.40
2022-10-22T10:28:07.191Z,53.33
2022-10-22T10:29:07.183Z,52.85
2022-10-22T10:30:07.193Z,50.43
2022-10-22T10:31:07.161Z,53.66
2022-10-22T10:32:07.143Z,49.15
2022-10-22T10:33:07.156Z,50.11
2022-10-22T10:34:07.125Z,52.53
2022-10-22T10:35:07.124Z,50.43
2022-10-22T10:36:07.110Z,49.15
2022-10-22T10:37:07.094Z,48.50
2022-10-22T10:38:07.108Z,51.40
2022-10-22T10:39:07.080Z,52.69
2022-10-22T10:40:07.089Z,51.24
2022-10-22T10:41:07.066Z,52.69
2022-10-22T10:42:07.107Z,52.37
2022-10-22T10:43:07.038Z,49.15
2022-10-22T10:44:07.040Z,52.37
2022-10-22T10:45:07.060Z,52.37
2022-10-22T10:46:07.079Z,49.15
2022-10-22T10:47:07.029Z,48.34
2022-10-22T10:48:06.999Z,50.92
2022-10-22T10:49:06.984Z,52.53
2022-10-22T10:50:06.983Z,50.92
2022-10-22T10:51:06.961Z,53.98
2022-10-22T10:52:06.978Z,52.21
2022-10-22T10:53:06.961Z,47.70
2022-10-22T10:54:06.943Z,47.21
2022-10-22T10:55:07.860Z,50.11
2022-10-22T10:56:06.920Z,49.47
2022-10-22T10:57:06.943Z,50.11
2022-10-22T10:58:06.917Z,49.47
2022-10-22T10:59:06.882Z,52.21
2022-10-22T11:00:06.886Z,50.76
2022-10-22T11:01:06.863Z,50.27
2022-10-22T11:02:06.867Z,48.34
2022-10-22T11:03:06.879Z,49.31
2022-10-22T11:04:06.857Z,49.15
2022-10-22T11:05:06.823Z,51.72
2022-10-22T11:06:06.820Z,52.53
2022-10-22T11:07:11.460Z,48.50
2022-10-22T11:08:07.824Z,53.01
2022-10-22T11:09:06.844Z,51.88
2022-10-22T11:10:06.766Z,49.79
2022-10-22T11:11:07.895Z,50.27
2022-10-22T11:12:06.759Z,51.40
2022-10-22T11:13:06.746Z,46.57
2022-10-22T11:14:06.766Z,52.05
2022-10-22T11:15:06.737Z,49.63
2022-10-22T11:16:06.716Z,47.53
2022-10-22T11:17:06.713Z,52.85
2022-10-22T11:18:06.707Z,50.92
2022-10-22T11:19:06.707Z,48.50
2022-10-22T11:20:06.687Z,51.24
2022-10-22T11:21:06.674Z,49.31
2022-10-22T11:22:06.699Z,48.98
2022-10-22T11:23:19.391Z,49.79
2022-10-22T11:24:07.654Z,51.24
2022-10-22T11:25:06.645Z,47.37
2022-10-22T11:26:06.632Z,45.92
2022-10-22T11:27:06.623Z,50.27
2022-10-22T11:28:11.138Z,51.40
2022-10-22T11:29:07.596Z,52.37
2022-10-22T11:30:06.583Z,49.63
2022-10-22T11:31:06.574Z,47.70
2022-10-22T11:32:06.615Z,47.86
2022-10-22T11:33:06.562Z,49.79
2022-10-22T11:34:28.446Z,52.05
2022-10-22T11:35:07.565Z,50.11
2022-10-22T11:36:06.514Z,49.79
2022-10-22T11:37:06.512Z,47.86
2022-10-22T11:38:06.527Z,50.43
2022-10-22T11:39:06.560Z,51.40
2022-10-22T11:40:06.487Z,52.21
2022-10-22T11:41:06.496Z,47.70
2022-10-22T11:42:06.470Z,46.89
2022-10-22T11:43:06.475Z,49.31
2022-10-22T11:44:06.471Z,49.15
2022-10-22T11:45:06.442Z,50.43
2022-10-22T11:46:06.430Z,50.76
2022-10-22T11:47:06.423Z,52.21
2022-10-22T11:48:06.422Z,48.66
2022-10-22T11:49:06.401Z,48.98
2022-10-22T11:50:06.392Z,48.98
2022-10-22T11:51:06.403Z,47.37
2022-10-22T11:52:06.366Z,46.08
2022-10-22T11:53:06.385Z,55.43
2022-10-22T11:54:07.067Z,49.31
2022-10-22T11:55:06.338Z,48.50
2022-10-22T11:56:06.352Z,48.66
2022-10-22T11:57:06.340Z,48.98
2022-10-22T11:58:06.303Z,52.05
2022-10-22T11:59:06.289Z,49.31
2022-10-22T12:00:06.315Z,47.37
2022-10-22T12:01:06.276Z,48.50
2022-10-22T12:02:06.293Z,48.66
2022-10-22T12:03:06.260Z,50.11
2022-10-22T12:04:06.284Z,48.50
2022-10-22T12:05:06.252Z,51.40
2022-10-22T12:06:06.252Z,50.43
2022-10-22T12:07:06.227Z,48.18
2022-10-22T12:08:06.206Z,48.50
2022-10-22T12:09:06.278Z,52.37
2022-10-22T12:10:06.190Z,49.31
2022-10-22T12:11:06.209Z,50.43
2022-10-22T12:12:06.172Z,48.50
2022-10-22T12:13:06.163Z,52.05
2022-10-22T12:14:06.180Z,49.95
2022-10-22T12:15:06.143Z,44.96
2022-10-22T12:16:06.137Z,48.82
2022-10-22T12:17:06.164Z,48.02
2022-10-22T12:18:06.152Z,51.24
2022-10-22T12:19:06.117Z,48.98
2022-10-22T12:20:06.108Z,50.92
2022-10-22T12:21:06.097Z,52.69
2022-10-22T12:22:06.109Z,54.30
2022-10-22T12:23:06.066Z,47.53
2022-10-22T12:24:06.052Z,51.88
2022-10-22T12:25:06.046Z,48.02
2022-10-22T12:26:06.027Z,47.05
2022-10-22T12:27:06.046Z,51.56
2022-10-22T12:28:06.021Z,52.37
2022-10-22T12:29:06.017Z,50.76
2022-10-22T12:30:06.003Z,50.27
2022-10-22T12:31:05.995Z,48.50
2022-10-22T12:32:05.976Z,50.60
2022-10-22T12:33:05.997Z,49.31
2022-10-22T12:34:06.245Z,51.40
2022-10-22T12:35:05.963Z,49.79
2022-10-22T12:36:05.948Z,51.88
2022-10-22T12:37:05.940Z,51.40
2022-10-22T12:38:05.941Z,47.86
2022-10-22T12:39:05.960Z,50.11
2022-10-22T12:40:05.891Z,52.21
2022-10-22T12:41:05.905Z,50.11
2022-10-22T12:42:05.911Z,50.27
2022-10-22T12:43:06.927Z,50.76
2022-10-22T12:44:05.911Z,52.37
2022-10-22T12:45:05.867Z,50.76
2022-10-22T12:46:05.844Z,50.92
2022-10-22T12:47:05.843Z,52.53
2022-10-22T12:48:05.838Z,50.92
2022-10-22T12:49:05.831Z,48.50
2022-10-22T12:50:05.838Z,50.27
2022-10-22T12:51:05.795Z,49.31
2022-10-22T12:52:07.699Z,48.50
2022-10-22T12:53:05.776Z,48.98